Time;durP1;ratioP1;P1;durP2;ratioP2;P2;SDS_P1;SDS_P2;PMS_P1;PMS_P2;Temp;Humidity;BMP_temperature;BMP_pressure;BME280_temperature;BME280_humidity;BME280_pressure;Samples;Min_cycle;Max_cycle;Signal;HPM_P1;HPM_P2
2023/10/17 00:01:54;;;;;;;3.83;1.80;;;;;;;-145.14;100.00;70583.66;4981086;28;20185;-70
2023/10/17 00:06:46;;;;;;;4.10;1.90;;;;;;;-145.14;100.00;70583.66;4988056;28;20451;-70
2023/10/17 00:09:21;;;;;;;3.80;1.50;;;;;;;-145.14;100.00;70583.66;4980090;28;20209;-70
2023/10/17 00:14:23;;;;;;;3.70;1.67;;;;;;;-145.14;100.00;70583.66;4986128;28;20470;-69
2023/10/17 00:16:55;;;;;;;3.83;1.53;;;;;;;-145.14;100.00;70583.66;4985070;28;20507;-70
2023/10/17 00:19:31;;;;;;;5.37;1.73;;;;;;;-145.14;100.00;70583.66;4979937;28;20632;-70
2023/10/17 00:21:59;;;;;;;4.00;1.60;;;;;;;-145.14;100.00;70583.66;4997061;28;20459;-69
2023/10/17 00:24:25;;;;;;;4.07;1.63;;;;;;;-145.14;100.00;70583.66;4982518;28;20457;-69
2023/10/17 00:26:50;;;;;;;3.97;1.60;;;;;;;-145.14;100.00;70583.66;4984303;28;20514;-69
2023/10/17 00:29:16;;;;;;;4.17;1.80;;;;;;;-145.14;100.00;70583.66;4980865;28;20500;-69
2023/10/17 00:31:44;;;;;;;3.97;1.43;;;;;;;-145.14;100.00;70583.66;4989819;28;20220;-70
2023/10/17 00:34:13;;;;;;;3.10;1.30;;;;;;;-145.14;100.00;70583.66;4985212;28;20831;-70
2023/10/17 00:36:49;;;;;;;3.73;1.73;;;;;;;-145.14;100.00;70583.66;4984545;28;20432;-70
2023/10/17 00:39:31;;;;;;;3.47;1.50;;;;;;;-145.14;100.00;70583.66;4981573;28;20448;-70
2023/10/17 00:44:33;;;;;;;2.70;1.40;;;;;;;-145.14;100.00;70583.66;4982725;28;20954;-70
2023/10/17 00:47:00;;;;;;;4.80;1.50;;;;;;;-145.14;100.00;70583.66;4986381;28;20809;-70
2023/10/17 00:49:29;;;;;;;3.93;1.60;;;;;;;-145.14;100.00;70583.66;4975429;28;21042;-70
2023/10/17 00:52:00;;;;;;;6.37;1.63;;;;;;;-145.14;100.00;70583.66;4987992;28;20483;-70
2023/10/17 00:54:26;;;;;;;3.60;1.70;;;;;;;-145.14;100.00;70583.66;4987420;28;20443;-69
2023/10/17 00:56:56;;;;;;;4.83;1.50;;;;;;;-145.14;100.00;70583.66;4985361;28;20520;-70
2023/10/17 00:59:24;;;;;;;4.77;1.97;;;;;;;-145.14;100.00;70583.66;4986059;28;20464;-70
2023/10/17 01:01:51;;;;;;;3.63;1.43;;;;;;;-145.14;100.00;70583.66;4983415;28;20957;-70
2023/10/17 01:04:19;;;;;;;3.27;1.50;;;;;;;-145.14;100.00;70583.66;4982150;28;20436;-70
2023/10/17 01:06:45;;;;;;;3.70;1.80;;;;;;;-145.14;100.00;70583.66;4985169;28;20430;-69
2023/10/17 01:09:17;;;;;;;3.90;1.50;;;;;;;-145.14;100.00;70583.66;4977700;28;20457;-69
2023/10/17 01:11:45;;;;;;;3.73;1.53;;;;;;;-145.14;100.00;70583.66;4990294;28;20507;-69
2023/10/17 01:14:11;;;;;;;3.73;1.67;;;;;;;-145.14;100.00;70583.66;4980347;28;21146;-69
2023/10/17 01:16:39;;;;;;;6.03;1.93;;;;;;;-145.14;100.00;70583.66;4983428;28;20437;-70
2023/10/17 01:19:05;;;;;;;4.40;2.00;;;;;;;-145.14;100.00;70583.66;4984912;28;20735;-69
2023/10/17 01:21:30;;;;;;;4.40;1.70;;;;;;;-145.14;100.00;70583.66;4982957;28;20453;-69
2023/10/17 01:23:56;;;;;;;4.60;1.50;;;;;;;-145.14;100.00;70583.66;4980968;28;20635;-70
2023/10/17 01:26:23;;;;;;;4.50;1.60;;;;;;;-145.14;100.00;70583.66;4985506;28;20188;-70
2023/10/17 01:28:52;;;;;;;2.80;1.50;;;;;;;-145.14;100.00;70583.66;4986825;28;20200;-70
2023/10/17 01:31:25;;;;;;;5.27;1.80;;;;;;;-145.14;100.00;70583.66;4995183;28;20433;-70
2023/10/17 01:33:53;;;;;;;3.47;1.80;;;;;;;-145.14;100.00;70583.66;4982218;28;20450;-70
2023/10/17 01:36:19;;;;;;;3.13;1.80;;;;;;;-145.14;100.00;70583.66;4978129;28;20593;-70
2023/10/17 01:38:46;;;;;;;5.00;2.20;;;;;;;-145.14;100.00;70583.66;4989591;28;20464;-70
2023/10/17 01:41:12;;;;;;;4.87;1.90;;;;;;;-145.14;100.00;70583.66;4983694;28;20186;-70
2023/10/17 01:43:40;;;;;;;4.57;1.80;;;;;;;-145.14;100.00;70583.66;4987504;28;20443;-70
2023/10/17 01:46:11;;;;;;;2.97;1.53;;;;;;;-145.14;100.00;70583.66;4980990;28;20454;-70
2023/10/17 01:48:37;;;;;;;4.30;2.17;;;;;;;-145.14;100.00;70583.66;4984385;28;20464;-70
2023/10/17 01:51:12;;;;;;;4.80;1.80;;;;;;;-145.14;100.00;70583.66;4978079;28;20444;-70
2023/10/17 01:53:39;;;;;;;3.57;1.80;;;;;;;-145.14;100.00;70583.66;4983030;28;20479;-71
2023/10/17 01:56:13;;;;;;;4.30;1.87;;;;;;;-145.14;100.00;70583.66;4991250;28;20523;-71
2023/10/17 01:58:49;;;;;;;4.77;1.90;;;;;;;-145.14;100.00;70583.66;4986115;28;20468;-70
2023/10/17 02:01:24;;;;;;;4.20;1.73;;;;;;;-145.14;100.00;70583.66;4985855;28;20454;-70
2023/10/17 02:03:50;;;;;;;3.30;1.60;;;;;;;-145.14;100.00;70583.66;4983453;28;20432;-71
2023/10/17 02:06:21;;;;;;;4.03;1.90;;;;;;;-145.14;100.00;70583.66;4984346;28;20496;-70
2023/10/17 02:08:47;;;;;;;4.23;2.00;;;;;;;-145.14;100.00;70583.66;4978053;28;20791;-70
2023/10/17 02:11:23;;;;;;;3.40;1.43;;;;;;;-145.14;100.00;70583.66;4983551;28;20965;-70
2023/10/17 02:13:48;;;;;;;3.87;1.77;;;;;;;-145.14;100.00;70583.66;4989724;28;20643;-70
2023/10/17 02:16:15;;;;;;;4.53;2.00;;;;;;;-145.14;100.00;70583.66;4985327;28;20439;-70
2023/10/17 02:18:41;;;;;;;3.07;1.90;;;;;;;-145.14;100.00;70583.66;4983902;28;20210;-70
2023/10/17 02:21:06;;;;;;;3.93;2.17;;;;;;;-145.14;100.00;70583.66;4985726;28;20444;-69
2023/10/17 02:23:39;;;;;;;3.67;2.00;;;;;;;-145.14;100.00;70583.66;4983647;28;20212;-70
2023/10/17 02:26:10;;;;;;;5.43;1.97;;;;;;;-145.14;100.00;70583.66;4983273;28;20181;-69
2023/10/17 02:28:45;;;;;;;4.40;2.33;;;;;;;-145.14;100.00;70583.66;4989928;28;20480;-69
2023/10/17 02:31:14;;;;;;;3.90;1.73;;;;;;;-145.14;100.00;70583.66;4987662;28;20437;-69
2023/10/17 02:33:42;;;;;;;5.57;2.70;;;;;;;-145.14;100.00;70583.66;5002629;28;20435;-70
2023/10/17 02:36:15;;;;;;;5.33;2.33;;;;;;;-145.14;100.00;70583.66;4979944;28;20440;-70
2023/10/17 02:38:43;;;;;;;4.40;1.93;;;;;;;-145.14;100.00;70583.66;4985622;28;20461;-70
2023/10/17 02:41:19;;;;;;;4.73;2.77;;;;;;;-145.14;100.00;70583.66;4981284;28;20590;-70
2023/10/17 02:43:46;;;;;;;3.07;1.80;;;;;;;-145.14;100.00;70583.66;4985780;28;20501;-70
2023/10/17 02:46:13;;;;;;;3.63;1.80;;;;;;;-145.14;100.00;70583.66;4983508;28;20455;-70
2023/10/17 02:48:38;;;;;;;4.43;2.70;;;;;;;-145.14;100.00;70583.66;4985643;28;20452;-70
2023/10/17 02:53:52;;;;;;;4.80;2.20;;;;;;;-145.14;100.00;70583.66;4985016;28;20656;-70
2023/10/17 02:56:21;;;;;;;3.40;1.63;;;;;;;-145.14;100.00;70583.66;4989392;28;20436;-70
2023/10/17 02:58:59;;;;;;;4.53;2.50;;;;;;;-145.14;100.00;70583.66;4987113;28;20473;-70
2023/10/17 03:01:26;;;;;;;6.40;2.13;;;;;;;-145.14;100.00;70583.66;4980361;28;20441;-70
2023/10/17 03:03:52;;;;;;;4.67;2.30;;;;;;;-145.14;100.00;70583.66;4985928;28;20433;-70
2023/10/17 03:06:18;;;;;;;4.47;2.37;;;;;;;-145.14;100.00;70583.66;4975496;28;20519;-70
2023/10/17 03:08:49;;;;;;;4.33;1.73;;;;;;;-145.14;100.00;70583.66;4992976;28;20201;-70
2023/10/17 03:11:17;;;;;;;4.73;2.47;;;;;;;-145.14;100.00;70583.66;4992455;28;21163;-70
2023/10/17 03:13:44;;;;;;;3.53;1.80;;;;;;;-145.14;100.00;70583.66;4992084;28;20429;-70
2023/10/17 03:16:43;;;;;;;5.87;2.33;;;;;;;-145.14;100.00;70583.66;4983192;28;20449;-70
2023/10/17 03:19:06;;;;;;;3.63;2.00;;;;;;;-145.14;100.00;70583.66;4991508;28;21057;-70
2023/10/17 03:21:34;;;;;;;3.20;1.70;;;;;;;-145.14;100.00;70583.66;4984494;28;20432;-70
2023/10/17 03:24:06;;;;;;;4.73;2.50;;;;;;;-145.14;100.00;70583.66;4981442;28;20507;-70
2023/10/17 03:26:54;;;;;;;5.17;2.60;;;;;;;-145.14;100.00;70583.66;4981905;28;20494;-70
2023/10/17 03:29:23;;;;;;;4.80;2.37;;;;;;;-145.14;100.00;70583.66;4989262;28;20444;-70
2023/10/17 03:31:53;;;;;;;4.70;2.57;;;;;;;-145.14;100.00;70583.66;4991612;28;20526;-70
2023/10/17 03:34:29;;;;;;;6.07;2.67;;;;;;;-145.14;100.00;70583.66;4987497;28;20523;-70
2023/10/17 03:36:55;;;;;;;5.13;2.20;;;;;;;-145.14;100.00;70583.66;4976110;28;20441;-70
2023/10/17 03:39:21;;;;;;;4.57;2.00;;;;;;;-145.14;100.00;70583.66;4992708;28;20462;-71
2023/10/17 03:41:56;;;;;;;3.73;2.10;;;;;;;-145.14;100.00;70583.66;4988466;28;21192;-70
2023/10/17 03:44:39;;;;;;;4.50;2.37;;;;;;;-145.14;100.00;70583.66;4974796;28;20436;-71
2023/10/17 03:47:04;;;;;;;4.20;2.03;;;;;;;-145.14;100.00;70583.66;4981633;28;20434;-70
2023/10/17 03:49:36;;;;;;;3.73;2.10;;;;;;;-145.14;100.00;70583.66;4987026;28;20460;-70
2023/10/17 03:52:06;;;;;;;3.20;2.00;;;;;;;-145.14;100.00;70583.66;4980328;28;20205;-70
2023/10/17 03:54:38;;;;;;;3.87;2.43;;;;;;;-145.14;100.00;70583.66;4998477;28;20955;-71
2023/10/17 03:57:13;;;;;;;4.67;2.17;;;;;;;-145.14;100.00;70583.66;4975274;28;20425;-69
2023/10/17 03:59:40;;;;;;;4.67;2.80;;;;;;;-145.14;100.00;70583.66;4998487;28;20472;-70
2023/10/17 04:02:11;;;;;;;4.10;2.33;;;;;;;-145.14;100.00;70583.66;4988707;28;20461;-70
2023/10/17 04:04:38;;;;;;;5.77;2.50;;;;;;;-145.14;100.00;70583.66;4988952;28;20450;-70
2023/10/17 04:07:06;;;;;;;5.30;2.03;;;;;;;-145.14;100.00;70583.66;4983802;28;20468;-70
2023/10/17 04:09:37;;;;;;;4.40;2.23;;;;;;;-145.14;100.00;70583.66;4992955;28;20456;-70
2023/10/17 04:12:03;;;;;;;5.80;2.37;;;;;;;-145.14;100.00;70583.66;4988195;28;20523;-70
2023/10/17 04:14:34;;;;;;;3.67;2.30;;;;;;;-145.14;100.00;70583.66;4987653;28;20432;-70
2023/10/17 04:17:03;;;;;;;5.33;2.67;;;;;;;-145.14;100.00;70583.66;4989942;28;20447;-70
2023/10/17 04:19:31;;;;;;;4.17;2.47;;;;;;;-145.14;100.00;70583.66;4992210;28;20543;-70
2023/10/17 04:24:35;;;;;;;3.73;1.90;;;;;;;-145.14;100.00;70583.66;4985332;28;20440;-70
2023/10/17 04:27:27;;;;;;;5.17;2.40;;;;;;;-145.14;100.00;70583.66;4988249;28;20212;-70
2023/10/17 04:29:56;;;;;;;5.33;2.43;;;;;;;-145.14;100.00;70583.66;4990414;28;21055;-70
2023/10/17 04:32:22;;;;;;;5.50;2.20;;;;;;;-145.14;100.00;70583.66;4991115;28;20472;-70
2023/10/17 04:34:48;;;;;;;4.30;2.47;;;;;;;-145.14;100.00;70583.66;4987292;28;20439;-70
2023/10/17 04:37:17;;;;;;;3.80;2.40;;;;;;;-145.14;100.00;70583.66;4988611;28;20570;-70
2023/10/17 04:39:49;;;;;;;5.10;2.00;;;;;;;-145.14;100.00;70583.66;4989354;28;20841;-70
2023/10/17 04:45:06;;;;;;;6.17;2.90;;;;;;;-145.14;100.00;70583.66;4987674;28;20534;-70
2023/10/17 04:47:32;;;;;;;4.57;2.70;;;;;;;-145.14;100.00;70583.66;4979637;28;20671;-69
2023/10/17 04:49:57;;;;;;;5.10;2.67;;;;;;;-145.14;100.00;70583.66;4988760;28;20455;-70
2023/10/17 04:52:30;;;;;;;7.00;2.57;;;;;;;-145.14;100.00;70583.66;4989618;28;20467;-69
2023/10/17 04:55:17;;;;;;;4.97;3.20;;;;;;;-145.14;100.00;70583.66;4977045;28;20233;-70
2023/10/17 05:03:27;;;;;;;6.20;2.60;;;;;;;-145.14;100.00;70583.66;4957449;28;20523;-70
2023/10/17 05:07:06;;;;;;;4.77;2.37;;;;;;;-145.14;100.00;70583.66;4980822;28;20435;-71
2023/10/17 06:17:55;;;;;;;7.10;3.10;;;;;;;-145.14;100.00;70583.66;4987863;28;20487;-70
2023/10/17 06:20:43;;;;;;;8.90;3.70;;;;;;;-145.14;100.00;70583.66;4993454;28;20440;-70
2023/10/17 06:23:23;;;;;;;4.77;2.37;;;;;;;-145.14;100.00;70583.66;4986294;28;20284;-70
2023/10/17 06:28:34;;;;;;;7.43;3.00;;;;;;;-145.14;100.00;70583.66;4983962;28;20456;-70
2023/10/17 06:33:56;;;;;;;6.07;2.87;;;;;;;-145.14;100.00;70583.66;4987744;28;20491;-70
2023/10/17 06:36:25;;;;;;;5.30;2.90;;;;;;;-145.14;100.00;70583.66;4984060;28;20636;-69
2023/10/17 06:38:52;;;;;;;6.17;2.93;;;;;;;-145.14;100.00;70583.66;4987190;28;20559;-71
2023/10/17 06:44:05;;;;;;;7.33;3.00;;;;;;;-145.14;100.00;70583.66;4985068;28;20491;-71
2023/10/17 06:46:40;;;;;;;5.90;3.40;;;;;;;-145.14;100.00;70583.66;4986554;28;20417;-71
2023/10/17 06:49:28;;;;;;;5.57;2.97;;;;;;;-145.14;100.00;70583.66;4988251;28;20471;-72
2023/10/17 06:52:07;;;;;;;4.20;2.50;;;;;;;-145.14;100.00;70583.66;4984986;28;20835;-71
2023/10/17 06:54:46;;;;;;;5.60;2.73;;;;;;;-145.14;100.00;70583.66;4987048;28;20424;-71
2023/10/17 06:57:23;;;;;;;4.40;2.40;;;;;;;-145.14;100.00;70583.66;4979110;28;20441;-69
2023/10/17 06:59:54;;;;;;;5.53;2.60;;;;;;;-145.14;100.00;70583.66;4983936;28;20496;-69
2023/10/17 07:02:31;;;;;;;4.40;2.70;;;;;;;-145.14;100.00;70583.66;4984618;28;21046;-70
2023/10/17 07:05:00;;;;;;;6.83;3.27;;;;;;;-145.14;100.00;70583.66;4982731;28;20782;-69
2023/10/17 07:07:39;;;;;;;3.90;2.40;;;;;;;-145.14;100.00;70583.66;4981888;28;20530;-70
2023/10/17 07:13:28;;;;;;;5.10;2.80;;;;;;;-145.14;100.00;70583.66;4986525;28;20491;-70
2023/10/17 07:15:54;;;;;;;5.93;3.10;;;;;;;-145.14;100.00;70583.66;4984220;28;20436;-71
2023/10/17 07:23:41;;;;;;;4.60;2.50;;;;;;;-145.14;100.00;70583.66;4991954;28;20441;-71
2023/10/17 07:26:17;;;;;;;5.27;2.97;;;;;;;-145.14;100.00;70583.66;4988962;28;20946;-71
2023/10/17 07:28:49;;;;;;;4.90;2.80;;;;;;;-145.14;100.00;70583.66;4991731;28;20451;-71
2023/10/17 07:31:16;;;;;;;7.60;3.57;;;;;;;-145.14;100.00;70583.66;4986278;28;20936;-72
2023/10/17 07:33:43;;;;;;;4.43;2.70;;;;;;;-145.14;100.00;70583.66;4981719;28;20876;-71
2023/10/17 07:36:15;;;;;;;4.23;2.60;;;;;;;-145.14;100.00;70583.66;4986914;28;20436;-71
2023/10/17 07:38:43;;;;;;;6.60;2.87;;;;;;;-145.14;100.00;70583.66;4986073;28;20448;-71
2023/10/17 07:41:33;;;;;;;6.27;2.73;;;;;;;-145.14;100.00;70583.66;4984261;28;20421;-71
2023/10/17 07:44:06;;;;;;;4.63;2.60;;;;;;;-145.14;100.00;70583.66;4984752;28;20435;-71
2023/10/17 07:46:34;;;;;;;5.53;2.37;;;;;;;-145.14;100.00;70583.66;4988254;28;20420;-71
2023/10/17 07:49:05;;;;;;;7.23;2.67;;;;;;;-145.14;100.00;70583.66;4986704;28;20472;-71
2023/10/17 07:51:31;;;;;;;6.47;2.47;;;;;;;-145.14;100.00;70583.66;4978321;28;20442;-71
2023/10/17 07:53:59;;;;;;;5.93;2.20;;;;;;;-145.14;100.00;70583.66;4984105;28;20444;-71
2023/10/17 07:56:25;;;;;;;4.13;1.97;;;;;;;-145.14;100.00;70583.66;4985797;28;20218;-71
2023/10/17 07:58:57;;;;;;;6.60;1.97;;;;;;;-145.14;100.00;70583.66;4982016;28;20972;-71
2023/10/17 08:01:32;;;;;;;4.70;2.13;;;;;;;-145.14;100.00;70583.66;4992533;28;20424;-71
2023/10/17 08:06:42;;;;;;;5.10;1.90;;;;;;;-145.14;100.00;70583.66;4980865;28;20441;-69
2023/10/17 08:09:24;;;;;;;5.10;1.77;;;;;;;-145.14;100.00;70583.66;4980911;28;20457;-70
2023/10/17 08:11:53;;;;;;;7.70;1.80;;;;;;;-145.14;100.00;70583.66;4975977;28;20522;-70
2023/10/17 08:14:22;;;;;;;3.67;1.53;;;;;;;-145.14;100.00;70583.66;4980637;28;21227;-70
2023/10/17 08:16:54;;;;;;;6.43;2.50;;;;;;;-145.14;100.00;70583.66;4981708;28;20971;-70
2023/10/17 08:19:23;;;;;;;4.73;2.17;;;;;;;-145.14;100.00;70583.66;4981854;28;20531;-70
2023/10/17 08:24:15;;;;;;;5.20;2.57;;;;;;;-145.14;100.00;70583.66;4980026;28;20430;-70
2023/10/17 08:26:42;;;;;;;4.40;2.20;;;;;;;-145.14;100.00;70583.66;4974690;28;20870;-70
2023/10/17 08:29:10;;;;;;;4.00;1.87;;;;;;;-145.14;100.00;70583.66;4984103;28;20457;-70
2023/10/17 08:31:36;;;;;;;5.40;2.00;;;;;;;-145.14;100.00;70583.66;4984138;28;20497;-70
2023/10/17 08:42:14;;;;;;;3.80;1.30;;;;;;;-145.14;100.00;70583.66;4958655;28;20448;-70
2023/10/17 08:44:47;;;;;;;4.40;1.53;;;;;;;-145.14;100.00;70583.66;4979002;28;20468;-70
2023/10/17 08:47:16;;;;;;;6.00;1.53;;;;;;;-145.14;100.00;70583.66;4978975;28;20436;-70
2023/10/17 08:49:46;;;;;;;4.90;1.37;;;;;;;-145.14;100.00;70583.66;4982599;28;20467;-70
2023/10/17 08:52:23;;;;;;;5.13;1.90;;;;;;;-145.14;100.00;70583.66;4983440;28;20970;-70
2023/10/17 08:54:49;;;;;;;5.07;1.67;;;;;;;-145.14;100.00;70583.66;4982241;28;20977;-70
2023/10/17 08:57:14;;;;;;;4.90;1.70;;;;;;;-145.14;100.00;70583.66;4978422;28;20943;-70
2023/10/17 09:02:29;;;;;;;3.70;1.27;;;;;;;-145.14;100.00;70583.66;4982173;28;20185;-70
2023/10/17 09:05:27;;;;;;;4.13;1.20;;;;;;;-145.14;100.00;70583.66;4979403;28;20268;-71
2023/10/17 09:07:56;;;;;;;3.60;1.20;;;;;;;-145.14;100.00;70583.66;4980425;28;20447;-70
2023/10/17 09:10:38;;;;;;;3.07;0.97;;;;;;;-145.14;100.00;70583.66;4985211;28;20429;-70
2023/10/17 09:15:57;;;;;;;3.83;1.00;;;;;;;-145.14;100.00;70583.66;4984361;28;20446;-70
2023/10/17 09:18:47;;;;;;;2.73;0.87;;;;;;;-145.14;100.00;70583.66;4984526;28;20922;-69
2023/10/17 09:21:13;;;;;;;4.83;1.20;;;;;;;-145.14;100.00;70583.66;4986564;28;20970;-69
2023/10/17 09:23:41;;;;;;;2.43;0.90;;;;;;;-145.14;100.00;70583.66;4984881;28;20424;-70
2023/10/17 09:26:10;;;;;;;5.23;1.17;;;;;;;-145.14;100.00;70583.66;4980742;28;20460;-69
2023/10/17 09:28:36;;;;;;;2.60;1.00;;;;;;;-145.14;100.00;70583.66;4988074;28;20543;-69
2023/10/17 09:31:06;;;;;;;3.90;1.30;;;;;;;-145.14;100.00;70583.66;4992934;28;20524;-69
2023/10/17 09:33:32;;;;;;;2.93;1.10;;;;;;;-145.14;100.00;70583.66;4977830;28;20574;-69
2023/10/17 09:35:59;;;;;;;4.20;1.20;;;;;;;-145.14;100.00;70583.66;4985197;28;20477;-70
2023/10/17 09:38:27;;;;;;;3.30;1.00;;;;;;;-145.14;100.00;70583.66;4988404;28;21020;-69
2023/10/17 09:40:55;;;;;;;2.00;0.80;;;;;;;-145.14;100.00;70583.66;4996012;28;20508;-69
2023/10/17 09:43:20;;;;;;;4.07;0.90;;;;;;;-145.14;100.00;70583.66;4980180;28;20424;-69
2023/10/17 09:45:52;;;;;;;2.60;0.87;;;;;;;-145.14;100.00;70583.66;4995186;28;20871;-69
2023/10/17 09:48:26;;;;;;;2.87;0.93;;;;;;;-145.14;100.00;70583.66;4988659;28;20810;-69
2023/10/17 09:50:58;;;;;;;5.03;1.13;;;;;;;-145.14;100.00;70583.66;4976176;28;20445;-69
2023/10/17 09:53:29;;;;;;;4.73;1.20;;;;;;;-145.14;100.00;70583.66;4980483;28;20468;-69
2023/10/17 09:55:57;;;;;;;3.57;0.90;;;;;;;-145.14;100.00;70583.66;4992354;28;20436;-69
2023/10/17 09:58:28;;;;;;;4.43;1.20;;;;;;;-145.14;100.00;70583.66;4989443;28;20467;-69
2023/10/17 10:01:00;;;;;;;4.53;1.10;;;;;;;-145.14;100.00;70583.66;4983587;28;20436;-69
2023/10/17 10:03:28;;;;;;;3.20;1.10;;;;;;;-145.14;100.00;70583.66;4981808;28;20944;-69
2023/10/17 10:05:54;;;;;;;3.67;1.00;;;;;;;-145.14;100.00;70583.66;4990539;28;20449;-69
2023/10/17 10:08:32;;;;;;;4.20;1.20;;;;;;;-145.14;100.00;70583.66;4979246;28;20480;-69
2023/10/17 10:11:00;;;;;;;8.50;1.30;;;;;;;-145.14;100.00;70583.66;4991244;28;20952;-71
2023/10/17 10:13:26;;;;;;;2.90;1.20;;;;;;;-145.14;100.00;70583.66;4993802;28;20503;-69
2023/10/17 10:15:54;;;;;;;4.53;1.10;;;;;;;-145.14;100.00;70583.66;4993048;28;21313;-70
2023/10/17 10:18:35;;;;;;;3.20;1.07;;;;;;;-145.14;100.00;70583.66;4987205;28;20445;-72
2023/10/17 10:21:07;;;;;;;2.73;1.00;;;;;;;-145.14;100.00;70583.66;4987021;28;20428;-69
2023/10/17 10:23:34;;;;;;;4.97;1.50;;;;;;;-145.14;100.00;70583.66;4987887;28;20420;-69
2023/10/17 10:26:11;;;;;;;3.47;1.10;;;;;;;-145.14;100.00;70583.66;4979636;28;20422;-69
2023/10/17 10:28:43;;;;;;;4.00;1.30;;;;;;;-145.14;100.00;70583.66;5003079;28;20458;-69
2023/10/17 10:31:33;;;;;;;4.63;1.27;;;;;;;-145.14;100.00;70583.66;4994462;28;21107;-69
2023/10/17 10:33:58;;;;;;;2.83;1.17;;;;;;;-145.14;100.00;70583.66;4993831;28;20429;-69
2023/10/17 10:36:25;;;;;;;5.00;1.30;;;;;;;-145.14;100.00;70583.66;4989821;28;22250;-69
2023/10/17 10:38:53;;;;;;;4.97;1.30;;;;;;;-145.14;100.00;70583.66;4992300;28;21205;-69
2023/10/17 10:41:22;;;;;;;3.63;1.03;;;;;;;-145.14;100.00;70583.66;4995542;28;20487;-69
2023/10/17 10:43:48;;;;;;;5.00;1.07;;;;;;;-145.14;100.00;70583.66;4992874;28;20423;-69
2023/10/17 10:46:15;;;;;;;2.50;0.80;;;;;;;-145.14;100.00;70583.66;4988155;28;20441;-69
2023/10/17 10:48:48;;;;;;;5.73;1.10;;;;;;;-145.14;100.00;70583.66;4988252;28;20453;-69
2023/10/17 10:51:17;;;;;;;3.90;1.07;;;;;;;-145.14;100.00;70583.66;4986699;28;20440;-69
2023/10/17 10:53:46;;;;;;;5.10;1.27;;;;;;;-145.14;100.00;70583.66;4985009;28;20549;-69
2023/10/17 10:56:11;;;;;;;1.90;0.70;;;;;;;-145.14;100.00;70583.66;4992358;28;20431;-69
2023/10/17 10:58:47;;;;;;;4.53;1.23;;;;;;;-145.14;100.00;70583.66;4993507;28;20451;-69
2023/10/17 11:01:14;;;;;;;2.73;0.93;;;;;;;-145.14;100.00;70583.66;4991737;28;20228;-69
2023/10/17 11:03:41;;;;;;;3.97;0.90;;;;;;;-145.14;100.00;70583.66;4988114;28;20524;-69
2023/10/17 11:06:09;;;;;;;3.87;0.77;;;;;;;-145.14;100.00;70583.66;4991673;28;20421;-69
2023/10/17 11:08:46;;;;;;;7.03;1.10;;;;;;;-145.14;100.00;70583.66;4977594;28;20457;-69
2023/10/17 11:11:16;;;;;;;1.90;0.70;;;;;;;-145.14;100.00;70583.66;4991180;28;20409;-70
2023/10/17 11:13:52;;;;;;;3.40;1.10;;;;;;;-145.14;100.00;70583.66;4996922;28;20966;-69
2023/10/17 11:16:20;;;;;;;5.20;0.97;;;;;;;-145.14;100.00;70583.66;4986807;28;20429;-70
2023/10/17 11:18:47;;;;;;;2.60;0.87;;;;;;;-145.14;100.00;70583.66;4993544;28;20817;-69
2023/10/17 11:21:16;;;;;;;3.70;1.10;;;;;;;-145.14;100.00;70583.66;4993068;28;20440;-69
2023/10/17 11:23:50;;;;;;;2.70;0.80;;;;;;;-145.14;100.00;70583.66;4989328;28;20424;-69
2023/10/17 11:26:19;;;;;;;4.57;1.30;;;;;;;-145.14;100.00;70583.66;4977803;28;21578;-69
2023/10/17 11:28:51;;;;;;;4.77;1.20;;;;;;;-145.14;100.00;70583.66;4997456;28;20435;-70
2023/10/17 11:31:26;;;;;;;3.80;1.13;;;;;;;-145.14;100.00;70583.66;4997463;28;20504;-69
2023/10/17 11:33:59;;;;;;;2.87;0.90;;;;;;;-145.14;100.00;70583.66;4996223;28;20478;-70
2023/10/17 11:36:35;;;;;;;3.40;0.90;;;;;;;-145.14;100.00;70583.66;4986558;28;20428;-70
2023/10/17 11:39:04;;;;;;;3.20;0.73;;;;;;;-145.14;100.00;70583.66;5008542;28;20462;-70
2023/10/17 11:41:39;;;;;;;2.47;0.87;;;;;;;-145.14;100.00;70583.66;4980531;28;20416;-70
2023/10/17 11:44:09;;;;;;;2.00;0.73;;;;;;;-145.14;100.00;70583.66;4991681;28;20427;-70
2023/10/17 11:46:35;;;;;;;3.03;0.80;;;;;;;-145.14;100.00;70583.66;4996400;28;20421;-70
2023/10/17 11:49:21;;;;;;;2.90;0.87;;;;;;;-145.14;100.00;70583.66;4994875;28;20456;-69
2023/10/17 11:51:56;;;;;;;4.13;0.93;;;;;;;-145.14;100.00;70583.66;4994524;28;20462;-70
2023/10/17 11:54:22;;;;;;;4.80;1.00;;;;;;;-145.14;100.00;70583.66;4991993;28;20440;-70
2023/10/17 11:56:48;;;;;;;1.97;0.70;;;;;;;-145.14;100.00;70583.66;4996943;28;20509;-70
2023/10/17 11:59:18;;;;;;;3.07;0.90;;;;;;;-145.14;100.00;70583.66;4993007;28;20893;-70
2023/10/17 12:01:48;;;;;;;2.67;0.90;;;;;;;-145.14;100.00;70583.66;4990937;28;20651;-70
2023/10/17 12:04:16;;;;;;;3.87;0.93;;;;;;;-145.14;100.00;70583.66;4985981;28;20425;-70
2023/10/17 12:06:48;;;;;;;3.67;1.10;;;;;;;-145.14;100.00;70583.66;4991377;28;20425;-70
2023/10/17 12:09:23;;;;;;;2.73;0.90;;;;;;;-145.14;100.00;70583.66;4989574;28;20448;-72
2023/10/17 12:11:53;;;;;;;3.50;1.00;;;;;;;-145.14;100.00;70583.66;4995494;28;20474;-72
2023/10/17 12:14:20;;;;;;;2.47;0.90;;;;;;;-145.14;100.00;70583.66;4997336;28;21257;-72
2023/10/17 12:16:58;;;;;;;2.30;0.90;;;;;;;-145.14;100.00;70583.66;4994207;28;20963;-70
2023/10/17 12:19:28;;;;;;;2.03;0.80;;;;;;;-145.14;100.00;70583.66;4989658;28;20434;-70
2023/10/17 12:22:00;;;;;;;2.00;0.80;;;;;;;-145.14;100.00;70583.66;4993499;28;20431;-70
2023/10/17 12:24:34;;;;;;;2.67;0.80;;;;;;;-145.14;100.00;70583.66;4983713;28;20812;-70
2023/10/17 12:27:01;;;;;;;5.27;1.80;;;;;;;-145.14;100.00;70583.66;4986671;28;20541;-70
2023/10/17 12:29:28;;;;;;;2.50;0.90;;;;;;;-145.14;100.00;70583.66;4994372;28;20469;-71
2023/10/17 12:31:54;;;;;;;2.33;0.93;;;;;;;-145.14;100.00;70583.66;4996406;28;20521;-71
2023/10/17 12:34:20;;;;;;;2.00;0.90;;;;;;;-145.14;100.00;70583.66;4995652;28;20449;-71
2023/10/17 12:36:46;;;;;;;2.00;0.90;;;;;;;-145.14;100.00;70583.66;4993723;28;20866;-71
2023/10/17 12:39:17;;;;;;;1.63;0.70;;;;;;;-145.14;100.00;70583.66;4981809;28;20205;-71
2023/10/17 12:41:45;;;;;;;1.90;0.77;;;;;;;-145.14;100.00;70583.66;4998351;28;20184;-71
2023/10/17 12:44:11;;;;;;;1.80;0.60;;;;;;;-145.14;100.00;70583.66;4984371;28;20432;-71
2023/10/17 12:46:37;;;;;;;2.57;0.80;;;;;;;-145.14;100.00;70583.66;4992693;28;20483;-71
2023/10/17 12:49:02;;;;;;;1.67;0.90;;;;;;;-145.14;100.00;70583.66;4983457;28;20491;-71
2023/10/17 12:51:28;;;;;;;1.20;0.80;;;;;;;-145.14;100.00;70583.66;4986151;28;20194;-71
2023/10/17 12:53:54;;;;;;;1.70;0.80;;;;;;;-145.14;100.00;70583.66;4986615;28;20217;-71
2023/10/17 12:56:20;;;;;;;1.00;0.60;;;;;;;-145.14;100.00;70583.66;4987453;28;20190;-71
2023/10/17 12:58:46;;;;;;;1.77;0.70;;;;;;;-145.14;100.00;70583.66;4986443;28;20455;-71
2023/10/17 13:01:12;;;;;;;1.10;0.70;;;;;;;-145.14;100.00;70583.66;4986020;28;20529;-71
2023/10/17 13:03:38;;;;;;;1.47;0.60;;;;;;;-145.14;100.00;70583.66;4986149;28;20494;-71
2023/10/17 13:06:04;;;;;;;1.67;0.83;;;;;;;-145.14;100.00;70583.66;4987550;28;20205;-71
2023/10/17 13:08:31;;;;;;;1.37;0.60;;;;;;;-145.14;100.00;70583.66;4985936;28;20240;-71
2023/10/17 13:10:57;;;;;;;1.30;0.67;;;;;;;-145.14;100.00;70583.66;4988602;28;20442;-72
2023/10/17 13:13:25;;;;;;;0.80;0.50;;;;;;;-145.14;100.00;70583.66;4985759;28;20980;-71
2023/10/17 13:15:54;;;;;;;1.00;0.50;;;;;;;-145.14;100.00;70583.66;4990170;28;20440;-72
2023/10/17 13:18:20;;;;;;;0.90;0.60;;;;;;;-145.14;100.00;70583.66;4981975;28;20511;-71
2023/10/17 13:20:53;;;;;;;1.20;0.60;;;;;;;-145.14;100.00;70583.66;4976176;28;20432;-72
2023/10/17 13:23:20;;;;;;;1.40;0.60;;;;;;;-145.14;100.00;70583.66;4985394;28;20288;-72
2023/10/17 13:25:46;;;;;;;1.00;0.60;;;;;;;-145.14;100.00;70583.66;4990455;28;20432;-72
2023/10/17 13:28:12;;;;;;;1.00;0.67;;;;;;;-145.14;100.00;70583.66;4986731;28;20460;-72
2023/10/17 13:30:38;;;;;;;0.93;0.60;;;;;;;-145.14;100.00;70583.66;4987740;28;20435;-73